sensor_id;sensor_type;location;lat;lon;timestamp;P1;durP1;ratioP1;P2;durP2;ratioP2
2854;SDS011;1435;49.472;10.940;2022-07-06T00:01:33;3.73;;;2.30;;
2854;SDS011;1435;49.472;10.940;2022-07-06T00:06:34;4.83;;;2.80;;
2854;SDS011;1435;49.472;10.940;2022-07-06T00:11:38;4.60;;;3.23;;
2854;SDS011;1435;49.472;10.940;2022-07-06T00:16:39;3.63;;;3.33;;
2854;SDS011;1435;49.472;10.940;2022-07-06T00:21:41;5.17;;;2.40;;
2854;SDS011;1435;49.472;10.940;2022-07-06T00:26:44;3.10;;;2.90;;
2854;SDS011;1435;49.472;10.940;2022-07-06T00:31:46;2.80;;;2.60;;
2854;SDS011;1435;49.472;10.940;2022-07-06T00:36:48;3.23;;;2.77;;
2854;SDS011;1435;49.472;10.940;2022-07-06T00:41:51;3.83;;;3.43;;
2854;SDS011;1435;49.472;10.940;2022-07-06T00:46:52;2.83;;;2.63;;
2854;SDS011;1435;49.472;10.940;2022-07-06T00:51:54;4.07;;;3.20;;
2854;SDS011;1435;49.472;10.940;2022-07-06T00:56:57;3.33;;;3.03;;
2854;SDS011;1435;49.472;10.940;2022-07-06T01:01:59;2.80;;;2.60;;
2854;SDS011;1435;49.472;10.940;2022-07-06T01:07:01;6.40;;;2.93;;
2854;SDS011;1435;49.472;10.940;2022-07-06T01:12:05;3.00;;;2.80;;
2854;SDS011;1435;49.472;10.940;2022-07-06T01:17:08;5.80;;;3.10;;
2854;SDS011;1435;49.472;10.940;2022-07-06T01:22:12;2.53;;;2.33;;
2854;SDS011;1435;49.472;10.940;2022-07-06T01:27:14;2.90;;;2.63;;
2854;SDS011;1435;49.472;10.940;2022-07-06T01:32:15;3.13;;;2.93;;
2854;SDS011;1435;49.472;10.940;2022-07-06T01:37:18;2.67;;;2.47;;
2854;SDS011;1435;49.472;10.940;2022-07-06T01:42:20;3.57;;;2.60;;
2854;SDS011;1435;49.472;10.940;2022-07-06T01:47:22;3.00;;;2.60;;
2854;SDS011;1435;49.472;10.940;2022-07-06T01:52:25;3.23;;;2.60;;
2854;SDS011;1435;49.472;10.940;2022-07-06T01:57:27;2.83;;;2.63;;
2854;SDS011;1435;49.472;10.940;2022-07-06T02:02:28;2.97;;;2.77;;
2854;SDS011;1435;49.472;10.940;2022-07-06T02:07:31;5.23;;;3.00;;
2854;SDS011;1435;49.472;10.940;2022-07-06T02:12:33;3.63;;;2.80;;
2854;SDS011;1435;49.472;10.940;2022-07-06T02:17:35;4.20;;;2.63;;
2854;SDS011;1435;49.472;10.940;2022-07-06T02:22:38;2.70;;;2.47;;
2854;SDS011;1435;49.472;10.940;2022-07-06T02:27:39;2.63;;;2.40;;
2854;SDS011;1435;49.472;10.940;2022-07-06T02:32:41;2.97;;;2.77;;
2854;SDS011;1435;49.472;10.940;2022-07-06T02:37:44;3.83;;;2.50;;
2854;SDS011;1435;49.472;10.940;2022-07-06T02:42:46;3.83;;;2.70;;
2854;SDS011;1435;49.472;10.940;2022-07-06T02:47:48;2.57;;;2.40;;
2854;SDS011;1435;49.472;10.940;2022-07-06T02:52:52;2.57;;;2.37;;
2854;SDS011;1435;49.472;10.940;2022-07-06T02:57:55;2.80;;;2.60;;
2854;SDS011;1435;49.472;10.940;2022-07-06T03:02:56;3.87;;;2.70;;
2854;SDS011;1435;49.472;10.940;2022-07-06T03:07:59;2.80;;;2.60;;
2854;SDS011;1435;49.472;10.940;2022-07-06T03:13:01;2.93;;;2.50;;
2854;SDS011;1435;49.472;10.940;2022-07-06T03:18:03;3.10;;;2.53;;
2854;SDS011;1435;49.472;10.940;2022-07-06T03:23:06;3.10;;;2.90;;
2854;SDS011;1435;49.472;10.940;2022-07-06T03:28:07;2.60;;;2.40;;
2854;SDS011;1435;49.472;10.940;2022-07-06T03:33:09;4.00;;;3.30;;
2854;SDS011;1435;49.472;10.940;2022-07-06T03:38:12;2.83;;;2.63;;
2854;SDS011;1435;49.472;10.940;2022-07-06T03:43:14;2.87;;;2.60;;
2854;SDS011;1435;49.472;10.940;2022-07-06T03:48:16;4.17;;;2.80;;
2854;SDS011;1435;49.472;10.940;2022-07-06T03:53:19;2.43;;;2.23;;
2854;SDS011;1435;49.472;10.940;2022-07-06T03:58:20;2.80;;;2.60;;
2854;SDS011;1435;49.472;10.940;2022-07-06T04:03:22;2.50;;;2.40;;
2854;SDS011;1435;49.472;10.940;2022-07-06T04:08:25;2.43;;;2.33;;
2854;SDS011;1435;49.472;10.940;2022-07-06T04:13:27;2.70;;;2.50;;
2854;SDS011;1435;49.472;10.940;2022-07-06T04:18:28;3.23;;;2.30;;
2854;SDS011;1435;49.472;10.940;2022-07-06T04:23:31;5.40;;;2.80;;
2854;SDS011;1435;49.472;10.940;2022-07-06T04:28:33;3.37;;;2.50;;
2854;SDS011;1435;49.472;10.940;2022-07-06T04:33:35;3.23;;;2.93;;
2854;SDS011;1435;49.472;10.940;2022-07-06T04:38:38;3.20;;;2.57;;
2854;SDS011;1435;49.472;10.940;2022-07-06T04:43:39;2.57;;;2.40;;
2854;SDS011;1435;49.472;10.940;2022-07-06T04:48:41;2.83;;;2.43;;
2854;SDS011;1435;49.472;10.940;2022-07-06T04:53:44;2.57;;;2.37;;
2854;SDS011;1435;49.472;10.940;2022-07-06T04:58:46;4.30;;;2.60;;
2854;SDS011;1435;49.472;10.940;2022-07-06T05:03:48;3.63;;;2.93;;
2854;SDS011;1435;49.472;10.940;2022-07-06T05:08:51;3.13;;;2.90;;
2854;SDS011;1435;49.472;10.940;2022-07-06T05:13:53;6.70;;;2.80;;
2854;SDS011;1435;49.472;10.940;2022-07-06T05:18:55;3.13;;;2.93;;
2854;SDS011;1435;49.472;10.940;2022-07-06T05:23:57;3.30;;;3.00;;
2854;SDS011;1435;49.472;10.940;2022-07-06T05:28:59;2.93;;;2.50;;
2854;SDS011;1435;49.472;10.940;2022-07-06T05:34:01;3.40;;;3.10;;
2854;SDS011;1435;49.472;10.940;2022-07-06T05:39:04;4.30;;;3.70;;
2854;SDS011;1435;49.472;10.940;2022-07-06T05:44:06;3.27;;;2.97;;
2854;SDS011;1435;49.472;10.940;2022-07-06T05:49:07;3.50;;;3.20;;
2854;SDS011;1435;49.472;10.940;2022-07-06T05:54:28;3.93;;;2.97;;
2854;SDS011;1435;49.472;10.940;2022-07-06T05:59:30;3.50;;;3.20;;
2854;SDS011;1435;49.472;10.940;2022-07-06T06:04:31;3.27;;;2.67;;
2854;SDS011;1435;49.472;10.940;2022-07-06T06:09:34;3.40;;;3.10;;
2854;SDS011;1435;49.472;10.940;2022-07-06T06:14:36;3.20;;;2.97;;
2854;SDS011;1435;49.472;10.940;2022-07-06T06:19:38;3.23;;;2.93;;
2854;SDS011;1435;49.472;10.940;2022-07-06T06:24:41;2.87;;;2.70;;
2854;SDS011;1435;49.472;10.940;2022-07-06T06:29:43;3.53;;;3.23;;
2854;SDS011;1435;49.472;10.940;2022-07-06T06:34:45;4.30;;;3.07;;
2854;SDS011;1435;49.472;10.940;2022-07-06T06:39:49;3.63;;;3.00;;
2854;SDS011;1435;49.472;10.940;2022-07-06T06:44:51;2.73;;;2.53;;
2854;SDS011;1435;49.472;10.940;2022-07-06T06:49:53;2.50;;;2.40;;
2854;SDS011;1435;49.472;10.940;2022-07-06T06:54:56;5.37;;;3.07;;
2854;SDS011;1435;49.472;10.940;2022-07-06T06:59:57;3.00;;;2.70;;
2854;SDS011;1435;49.472;10.940;2022-07-06T07:04:59;2.50;;;2.40;;
2854;SDS011;1435;49.472;10.940;2022-07-06T07:10:02;5.90;;;2.97;;
2854;SDS011;1435;49.472;10.940;2022-07-06T07:15:05;3.37;;;2.40;;
2854;SDS011;1435;49.472;10.940;2022-07-06T07:20:08;3.43;;;2.77;;
2854;SDS011;1435;49.472;10.940;2022-07-06T07:25:12;4.50;;;2.80;;
2854;SDS011;1435;49.472;10.940;2022-07-06T07:30:14;2.97;;;2.47;;
2854;SDS011;1435;49.472;10.940;2022-07-06T07:35:16;3.00;;;2.10;;
2854;SDS011;1435;49.472;10.940;2022-07-06T07:40:19;3.17;;;2.97;;
2854;SDS011;1435;49.472;10.940;2022-07-06T07:45:21;3.80;;;3.07;;
2854;SDS011;1435;49.472;10.940;2022-07-06T07:50:23;2.17;;;2.07;;
2854;SDS011;1435;49.472;10.940;2022-07-06T07:55:28;4.00;;;2.30;;
2854;SDS011;1435;49.472;10.940;2022-07-06T08:00:29;4.73;;;3.57;;
2854;SDS011;1435;49.472;10.940;2022-07-06T08:05:31;2.97;;;2.30;;
2854;SDS011;1435;49.472;10.940;2022-07-06T08:10:36;2.37;;;2.17;;
2854;SDS011;1435;49.472;10.940;2022-07-06T08:15:38;2.67;;;2.47;;
2854;SDS011;1435;49.472;10.940;2022-07-06T08:20:39;2.77;;;2.17;;
2854;SDS011;1435;49.472;10.940;2022-07-06T08:25:43;3.40;;;2.23;;
2854;SDS011;1435;49.472;10.940;2022-07-06T08:30:45;2.30;;;2.00;;
2854;SDS011;1435;49.472;10.940;2022-07-06T08:35:47;4.23;;;2.50;;
2854;SDS011;1435;49.472;10.940;2022-07-06T08:40:50;2.80;;;2.10;;
2854;SDS011;1435;49.472;10.940;2022-07-06T08:45:53;3.83;;;2.50;;
2854;SDS011;1435;49.472;10.940;2022-07-06T08:50:55;3.03;;;2.40;;
2854;SDS011;1435;49.472;10.940;2022-07-06T08:55:58;4.10;;;2.70;;
2854;SDS011;1435;49.472;10.940;2022-07-06T09:01:01;3.07;;;2.00;;
2854;SDS011;1435;49.472;10.940;2022-07-06T09:06:03;3.60;;;2.20;;
2854;SDS011;1435;49.472;10.940;2022-07-06T09:11:08;2.20;;;2.10;;
2854;SDS011;1435;49.472;10.940;2022-07-06T09:16:10;2.60;;;2.13;;
2854;SDS011;1435;49.472;10.940;2022-07-06T09:21:16;4.63;;;2.30;;
2854;SDS011;1435;49.472;10.940;2022-07-06T09:26:26;2.53;;;2.23;;
2854;SDS011;1435;49.472;10.940;2022-07-06T09:31:27;2.60;;;2.40;;
2854;SDS011;1435;49.472;10.940;2022-07-06T09:36:36;3.10;;;2.50;;
2854;SDS011;1435;49.472;10.940;2022-07-06T09:41:44;2.07;;;1.87;;
2854;SDS011;1435;49.472;10.940;2022-07-06T09:46:46;2.73;;;2.53;;
2854;SDS011;1435;49.472;10.940;2022-07-06T09:51:49;3.40;;;2.47;;
2854;SDS011;1435;49.472;10.940;2022-07-06T09:56:54;3.10;;;2.50;;
2854;SDS011;1435;49.472;10.940;2022-07-06T10:01:57;2.40;;;2.17;;
2854;SDS011;1435;49.472;10.940;2022-07-06T10:07:01;4.43;;;2.50;;
2854;SDS011;1435;49.472;10.940;2022-07-06T10:12:04;2.33;;;2.13;;
2854;SDS011;1435;49.472;10.940;2022-07-06T10:17:10;3.07;;;2.60;;
2854;SDS011;1435;49.472;10.940;2022-07-06T10:22:13;3.03;;;2.37;;
2854;SDS011;1435;49.472;10.940;2022-07-06T10:27:19;2.93;;;2.20;;
2854;SDS011;1435;49.472;10.940;2022-07-06T10:32:21;2.50;;;2.30;;
2854;SDS011;1435;49.472;10.940;2022-07-06T10:37:24;2.87;;;2.67;;
2854;SDS011;1435;49.472;10.940;2022-07-06T10:42:44;2.50;;;2.30;;
2854;SDS011;1435;49.472;10.940;2022-07-06T10:53:17;4.90;;;2.63;;
2854;SDS011;1435;49.472;10.940;2022-07-06T10:58:35;2.10;;;2.00;;
2854;SDS011;1435;49.472;10.940;2022-07-06T11:03:42;1.77;;;1.60;;
2854;SDS011;1435;49.472;10.940;2022-07-06T11:08:48;3.30;;;2.20;;
2854;SDS011;1435;49.472;10.940;2022-07-06T11:13:59;2.97;;;2.27;;
2854;SDS011;1435;49.472;10.940;2022-07-06T11:19:04;1.90;;;1.80;;
2854;SDS011;1435;49.472;10.940;2022-07-06T11:24:08;2.77;;;2.57;;
2854;SDS011;1435;49.472;10.940;2022-07-06T11:29:12;2.30;;;2.10;;
2854;SDS011;1435;49.472;10.940;2022-07-06T11:34:17;6.07;;;2.30;;
2854;SDS011;1435;49.472;10.940;2022-07-06T11:39:19;4.73;;;2.10;;
2854;SDS011;1435;49.472;10.940;2022-07-06T11:44:22;2.43;;;2.23;;
2854;SDS011;1435;49.472;10.940;2022-07-06T11:49:25;2.40;;;1.93;;
2854;SDS011;1435;49.472;10.940;2022-07-06T11:54:27;2.00;;;1.90;;
2854;SDS011;1435;49.472;10.940;2022-07-06T11:59:30;1.93;;;1.50;;
2854;SDS011;1435;49.472;10.940;2022-07-06T12:04:35;3.00;;;2.07;;
2854;SDS011;1435;49.472;10.940;2022-07-06T12:09:39;4.47;;;1.77;;
2854;SDS011;1435;49.472;10.940;2022-07-06T12:14:43;5.30;;;1.70;;
2854;SDS011;1435;49.472;10.940;2022-07-06T12:19:45;2.13;;;2.00;;
2854;SDS011;1435;49.472;10.940;2022-07-06T12:24:53;2.43;;;2.10;;
2854;SDS011;1435;49.472;10.940;2022-07-06T12:30:07;2.43;;;1.93;;
2854;SDS011;1435;49.472;10.940;2022-07-06T12:35:09;1.63;;;1.53;;
2854;SDS011;1435;49.472;10.940;2022-07-06T12:40:12;2.40;;;2.10;;
2854;SDS011;1435;49.472;10.940;2022-07-06T12:45:15;1.90;;;1.80;;
2854;SDS011;1435;49.472;10.940;2022-07-06T12:50:18;1.73;;;1.63;;
2854;SDS011;1435;49.472;10.940;2022-07-06T12:55:24;2.93;;;1.87;;
2854;SDS011;1435;49.472;10.940;2022-07-06T13:00:28;2.00;;;1.80;;
2854;SDS011;1435;49.472;10.940;2022-07-06T13:05:48;3.03;;;1.70;;
2854;SDS011;1435;49.472;10.940;2022-07-06T13:10:50;1.90;;;1.80;;
2854;SDS011;1435;49.472;10.940;2022-07-06T13:15:53;3.73;;;2.03;;
2854;SDS011;1435;49.472;10.940;2022-07-06T13:20:55;2.73;;;1.70;;
2854;SDS011;1435;49.472;10.940;2022-07-06T13:25:56;2.87;;;1.77;;
2854;SDS011;1435;49.472;10.940;2022-07-06T13:30:59;3.70;;;1.80;;
2854;SDS011;1435;49.472;10.940;2022-07-06T13:36:01;2.70;;;1.83;;
2854;SDS011;1435;49.472;10.940;2022-07-06T13:41:03;1.70;;;1.60;;
2854;SDS011;1435;49.472;10.940;2022-07-06T13:46:07;2.40;;;1.70;;
2854;SDS011;1435;49.472;10.940;2022-07-06T13:51:10;2.10;;;1.50;;
2854;SDS011;1435;49.472;10.940;2022-07-06T13:56:12;2.90;;;1.70;;
2854;SDS011;1435;49.472;10.940;2022-07-06T14:01:15;2.40;;;1.60;;
2854;SDS011;1435;49.472;10.940;2022-07-06T14:06:16;5.00;;;1.60;;
2854;SDS011;1435;49.472;10.940;2022-07-06T14:11:19;2.10;;;1.53;;
2854;SDS011;1435;49.472;10.940;2022-07-06T14:16:22;2.83;;;2.10;;
2854;SDS011;1435;49.472;10.940;2022-07-06T14:21:24;1.63;;;1.50;;
2854;SDS011;1435;49.472;10.940;2022-07-06T14:26:26;3.00;;;1.47;;
2854;SDS011;1435;49.472;10.940;2022-07-06T14:31:29;1.50;;;1.40;;
2854;SDS011;1435;49.472;10.940;2022-07-06T14:36:30;2.70;;;1.77;;
2854;SDS011;1435;49.472;10.940;2022-07-06T14:41:33;3.07;;;1.60;;
2854;SDS011;1435;49.472;10.940;2022-07-06T14:46:35;2.07;;;1.83;;
2854;SDS011;1435;49.472;10.940;2022-07-06T14:51:37;2.90;;;1.47;;
2854;SDS011;1435;49.472;10.940;2022-07-06T14:56:38;2.20;;;1.70;;
2854;SDS011;1435;49.472;10.940;2022-07-06T15:01:42;2.80;;;1.40;;
2854;SDS011;1435;49.472;10.940;2022-07-06T15:06:44;1.90;;;1.80;;
2854;SDS011;1435;49.472;10.940;2022-07-06T15:11:46;1.87;;;1.67;;
2854;SDS011;1435;49.472;10.940;2022-07-06T15:16:49;2.30;;;1.73;;
2854;SDS011;1435;49.472;10.940;2022-07-06T15:21:52;1.90;;;1.60;;
2854;SDS011;1435;49.472;10.940;2022-07-06T15:26:54;1.73;;;1.60;;
2854;SDS011;1435;49.472;10.940;2022-07-06T15:31:57;1.57;;;1.47;;
2854;SDS011;1435;49.472;10.940;2022-07-06T15:36:59;2.07;;;1.87;;
2854;SDS011;1435;49.472;10.940;2022-07-06T15:42:01;2.30;;;1.67;;
2854;SDS011;1435;49.472;10.940;2022-07-06T15:47:05;5.10;;;1.70;;
2854;SDS011;1435;49.472;10.940;2022-07-06T15:52:07;1.80;;;1.70;;
2854;SDS011;1435;49.472;10.940;2022-07-06T15:57:09;1.70;;;1.60;;
2854;SDS011;1435;49.472;10.940;2022-07-06T16:02:12;3.27;;;1.90;;
2854;SDS011;1435;49.472;10.940;2022-07-06T16:07:14;1.60;;;1.50;;
2854;SDS011;1435;49.472;10.940;2022-07-06T16:12:16;1.50;;;1.40;;
2854;SDS011;1435;49.472;10.940;2022-07-06T16:17:19;2.25;;;1.70;;
2854;SDS011;1435;49.472;10.940;2022-07-06T16:22:20;1.50;;;1.40;;
2854;SDS011;1435;49.472;10.940;2022-07-06T16:27:46;1.60;;;1.50;;
2854;SDS011;1435;49.472;10.940;2022-07-06T16:32:49;2.60;;;1.60;;
2854;SDS011;1435;49.472;10.940;2022-07-06T16:37:50;1.60;;;1.50;;
2854;SDS011;1435;49.472;10.940;2022-07-06T16:42:53;1.83;;;1.73;;
2854;SDS011;1435;49.472;10.940;2022-07-06T16:47:56;3.40;;;1.70;;
2854;SDS011;1435;49.472;10.940;2022-07-06T16:52:59;5.30;;;2.05;;
2854;SDS011;1435;49.472;10.940;2022-07-06T16:58:00;3.27;;;1.70;;
2854;SDS011;1435;49.472;10.940;2022-07-06T17:03:04;2.97;;;1.67;;
2854;SDS011;1435;49.472;10.940;2022-07-06T17:08:05;4.67;;;1.97;;
2854;SDS011;1435;49.472;10.940;2022-07-06T17:13:07;1.80;;;1.70;;
2854;SDS011;1435;49.472;10.940;2022-07-06T17:18:10;1.70;;;1.60;;
2854;SDS011;1435;49.472;10.940;2022-07-06T17:23:14;1.73;;;1.63;;
2854;SDS011;1435;49.472;10.940;2022-07-06T17:28:16;1.83;;;1.70;;
2854;SDS011;1435;49.472;10.940;2022-07-06T17:33:19;2.03;;;1.77;;
2854;SDS011;1435;49.472;10.940;2022-07-06T17:38:21;1.70;;;1.60;;
2854;SDS011;1435;49.472;10.940;2022-07-06T17:43:23;2.00;;;1.90;;
2854;SDS011;1435;49.472;10.940;2022-07-06T17:48:26;3.03;;;1.70;;
2854;SDS011;1435;49.472;10.940;2022-07-06T17:53:28;2.00;;;1.80;;
2854;SDS011;1435;49.472;10.940;2022-07-06T17:58:29;2.00;;;1.77;;
2854;SDS011;1435;49.472;10.940;2022-07-06T18:03:32;2.90;;;2.13;;
2854;SDS011;1435;49.472;10.940;2022-07-06T18:08:34;3.73;;;2.10;;
2854;SDS011;1435;49.472;10.940;2022-07-06T18:13:36;1.90;;;1.80;;
2854;SDS011;1435;49.472;10.940;2022-07-06T18:18:39;2.53;;;2.33;;
2854;SDS011;1435;49.472;10.940;2022-07-06T18:23:41;3.40;;;3.10;;
2854;SDS011;1435;49.472;10.940;2022-07-06T18:28:43;2.80;;;2.60;;
2854;SDS011;1435;49.472;10.940;2022-07-06T18:33:46;3.40;;;2.17;;
2854;SDS011;1435;49.472;10.940;2022-07-06T18:38:47;2.40;;;2.20;;
2854;SDS011;1435;49.472;10.940;2022-07-06T18:43:51;2.00;;;1.90;;
2854;SDS011;1435;49.472;10.940;2022-07-06T18:48:54;2.37;;;2.10;;
2854;SDS011;1435;49.472;10.940;2022-07-06T18:53:55;2.30;;;2.10;;
2854;SDS011;1435;49.472;10.940;2022-07-06T18:58:57;2.50;;;2.30;;
2854;SDS011;1435;49.472;10.940;2022-07-06T19:04:00;2.20;;;2.00;;
2854;SDS011;1435;49.472;10.940;2022-07-06T19:09:02;2.17;;;2.03;;
2854;SDS011;1435;49.472;10.940;2022-07-06T19:14:04;2.43;;;2.23;;
2854;SDS011;1435;49.472;10.940;2022-07-06T19:19:08;5.03;;;2.60;;
2854;SDS011;1435;49.472;10.940;2022-07-06T19:24:10;2.30;;;2.20;;
2854;SDS011;1435;49.472;10.940;2022-07-06T19:29:12;4.40;;;2.40;;
2854;SDS011;1435;49.472;10.940;2022-07-06T19:34:15;3.07;;;2.13;;
2854;SDS011;1435;49.472;10.940;2022-07-06T19:39:17;2.30;;;2.10;;
2854;SDS011;1435;49.472;10.940;2022-07-06T19:44:19;2.50;;;2.30;;
2854;SDS011;1435;49.472;10.940;2022-07-06T19:49:22;2.73;;;2.53;;
2854;SDS011;1435;49.472;10.940;2022-07-06T19:54:23;2.10;;;2.00;;
2854;SDS011;1435;49.472;10.940;2022-07-06T19:59:25;3.53;;;2.60;;
2854;SDS011;1435;49.472;10.940;2022-07-06T20:04:29;2.83;;;2.50;;
2854;SDS011;1435;49.472;10.940;2022-07-06T20:09:31;2.40;;;2.03;;
2854;SDS011;1435;49.472;10.940;2022-07-06T20:14:32;13.63;;;3.80;;
2854;SDS011;1435;49.472;10.940;2022-07-06T20:19:36;5.10;;;2.60;;
2854;SDS011;1435;49.472;10.940;2022-07-06T20:24:37;2.33;;;2.10;;
2854;SDS011;1435;49.472;10.940;2022-07-06T20:29:39;2.53;;;2.33;;
2854;SDS011;1435;49.472;10.940;2022-07-06T20:34:42;1.97;;;1.87;;
2854;SDS011;1435;49.472;10.940;2022-07-06T20:39:44;2.63;;;2.00;;
2854;SDS011;1435;49.472;10.940;2022-07-06T20:44:46;3.97;;;2.30;;
2854;SDS011;1435;49.472;10.940;2022-07-06T20:49:49;3.50;;;2.10;;
2854;SDS011;1435;49.472;10.940;2022-07-06T20:54:51;2.20;;;2.10;;
2854;SDS011;1435;49.472;10.940;2022-07-06T20:59:53;2.70;;;2.27;;
2854;SDS011;1435;49.472;10.940;2022-07-06T21:04:56;2.50;;;2.30;;
2854;SDS011;1435;49.472;10.940;2022-07-06T21:09:57;2.70;;;2.50;;
2854;SDS011;1435;49.472;10.940;2022-07-06T21:14:59;2.40;;;2.20;;
2854;SDS011;1435;49.472;10.940;2022-07-06T21:20:02;8.33;;;2.20;;
2854;SDS011;1435;49.472;10.940;2022-07-06T21:25:05;1.70;;;1.60;;
2854;SDS011;1435;49.472;10.940;2022-07-06T21:30:08;1.50;;;1.40;;
2854;SDS011;1435;49.472;10.940;2022-07-06T21:35:11;2.07;;;1.90;;
2854;SDS011;1435;49.472;10.940;2022-07-06T21:40:13;2.10;;;1.90;;
2854;SDS011;1435;49.472;10.940;2022-07-06T21:45:15;3.80;;;2.20;;
2854;SDS011;1435;49.472;10.940;2022-07-06T21:50:18;1.80;;;1.70;;
2854;SDS011;1435;49.472;10.940;2022-07-06T21:55:19;4.43;;;2.30;;
2854;SDS011;1435;49.472;10.940;2022-07-06T22:00:21;1.97;;;1.77;;
2854;SDS011;1435;49.472;10.940;2022-07-06T22:05:24;2.77;;;1.77;;
2854;SDS011;1435;49.472;10.940;2022-07-06T22:10:26;1.97;;;1.80;;
2854;SDS011;1435;49.472;10.940;2022-07-06T22:15:30;3.50;;;2.30;;
2854;SDS011;1435;49.472;10.940;2022-07-06T22:20:33;3.47;;;2.00;;
2854;SDS011;1435;49.472;10.940;2022-07-06T22:25:35;1.80;;;1.70;;
2854;SDS011;1435;49.472;10.940;2022-07-06T22:30:36;4.20;;;1.87;;
2854;SDS011;1435;49.472;10.940;2022-07-06T22:35:39;2.63;;;2.00;;
2854;SDS011;1435;49.472;10.940;2022-07-06T22:40:41;2.60;;;2.17;;
2854;SDS011;1435;49.472;10.940;2022-07-06T22:46:01;2.33;;;1.77;;
2854;SDS011;1435;49.472;10.940;2022-07-06T22:51:05;3.27;;;2.07;;
2854;SDS011;1435;49.472;10.940;2022-07-06T22:56:07;2.20;;;1.70;;
2854;SDS011;1435;49.472;10.940;2022-07-06T23:01:10;2.37;;;2.17;;
2854;SDS011;1435;49.472;10.940;2022-07-06T23:06:14;2.40;;;2.10;;
2854;SDS011;1435;49.472;10.940;2022-07-06T23:11:16;4.57;;;2.50;;
2854;SDS011;1435;49.472;10.940;2022-07-06T23:16:19;2.80;;;2.10;;
2854;SDS011;1435;49.472;10.940;2022-07-06T23:21:22;2.37;;;1.97;;
2854;SDS011;1435;49.472;10.940;2022-07-06T23:26:25;2.13;;;1.93;;
2854;SDS011;1435;49.472;10.940;2022-07-06T23:31:27;1.83;;;1.73;;
2854;SDS011;1435;49.472;10.940;2022-07-06T23:36:30;1.80;;;1.70;;
2854;SDS011;1435;49.472;10.940;2022-07-06T23:41:32;2.93;;;2.13;;
2854;SDS011;1435;49.472;10.940;2022-07-06T23:46:33;2.50;;;2.30;;
2854;SDS011;1435;49.472;10.940;2022-07-06T23:51:35;2.30;;;2.20;;
2854;SDS011;1435;49.472;10.940;2022-07-06T23:56:37;4.10;;;2.47;;
